sensor_id;sensor_type;location;lat;lon;timestamp;temperature;humidity
23073;DHT22;67971;51.046;3.732;2023-04-03T00:01:36;6.50;99.90
23073;DHT22;67971;51.046;3.732;2023-04-03T00:04:04;6.50;99.90
23073;DHT22;67971;51.046;3.732;2023-04-03T00:06:31;6.50;99.90
23073;DHT22;67971;51.046;3.732;2023-04-03T00:08:57;6.50;99.90
23073;DHT22;67971;51.046;3.732;2023-04-03T00:11:22;6.50;99.90
23073;DHT22;67971;51.046;3.732;2023-04-03T00:13:48;6.40;99.90
23073;DHT22;67971;51.046;3.732;2023-04-03T00:16:14;6.40;99.90
23073;DHT22;67971;51.046;3.732;2023-04-03T00:18:40;6.40;99.90
23073;DHT22;67971;51.046;3.732;2023-04-03T00:21:06;6.40;99.90
23073;DHT22;67971;51.046;3.732;2023-04-03T00:23:33;6.40;99.90
23073;DHT22;67971;51.046;3.732;2023-04-03T00:25:59;6.40;99.90
23073;DHT22;67971;51.046;3.732;2023-04-03T00:28:24;6.40;99.90
23073;DHT22;67971;51.046;3.732;2023-04-03T00:30:51;6.30;99.90
23073;DHT22;67971;51.046;3.732;2023-04-03T00:33:16;6.30;99.90
23073;DHT22;67971;51.046;3.732;2023-04-03T00:35:42;6.30;99.90
23073;DHT22;67971;51.046;3.732;2023-04-03T00:38:08;6.30;99.90
23073;DHT22;67971;51.046;3.732;2023-04-03T00:40:36;6.30;99.90
23073;DHT22;67971;51.046;3.732;2023-04-03T00:43:10;6.30;99.90
23073;DHT22;67971;51.046;3.732;2023-04-03T00:45:39;6.30;99.90
23073;DHT22;67971;51.046;3.732;2023-04-03T00:48:08;6.30;99.90
23073;DHT22;67971;51.046;3.732;2023-04-03T00:50:38;6.30;99.90
23073;DHT22;67971;51.046;3.732;2023-04-03T00:53:06;6.30;99.90
23073;DHT22;67971;51.046;3.732;2023-04-03T00:55:34;6.20;99.90
23073;DHT22;67971;51.046;3.732;2023-04-03T00:58:01;6.20;99.90
23073;DHT22;67971;51.046;3.732;2023-04-03T01:00:27;6.20;99.90
23073;DHT22;67971;51.046;3.732;2023-04-03T01:02:53;6.10;99.90
23073;DHT22;67971;51.046;3.732;2023-04-03T01:05:20;6.10;99.90
23073;DHT22;67971;51.046;3.732;2023-04-03T01:07:48;6.10;99.90
23073;DHT22;67971;51.046;3.732;2023-04-03T01:10:16;6.10;99.90
23073;DHT22;67971;51.046;3.732;2023-04-03T01:12:45;6.10;99.90
23073;DHT22;67971;51.046;3.732;2023-04-03T01:15:19;6.10;99.90
23073;DHT22;67971;51.046;3.732;2023-04-03T01:17:48;6.10;99.90
23073;DHT22;67971;51.046;3.732;2023-04-03T01:25:22;6.00;99.90
23073;DHT22;67971;51.046;3.732;2023-04-03T01:27:49;6.00;99.90
23073;DHT22;67971;51.046;3.732;2023-04-03T01:30:17;6.00;99.90
23073;DHT22;67971;51.046;3.732;2023-04-03T01:32:43;6.00;99.90
23073;DHT22;67971;51.046;3.732;2023-04-03T01:35:09;6.00;99.90
23073;DHT22;67971;51.046;3.732;2023-04-03T01:37:35;5.90;99.90
23073;DHT22;67971;51.046;3.732;2023-04-03T01:40:02;5.80;99.90
23073;DHT22;67971;51.046;3.732;2023-04-03T01:42:28;5.90;99.90
23073;DHT22;67971;51.046;3.732;2023-04-03T01:44:54;5.90;99.90
23073;DHT22;67971;51.046;3.732;2023-04-03T01:47:21;5.90;99.90
23073;DHT22;67971;51.046;3.732;2023-04-03T01:49:46;5.90;99.90
23073;DHT22;67971;51.046;3.732;2023-04-03T01:52:12;5.90;99.90
23073;DHT22;67971;51.046;3.732;2023-04-03T01:54:38;5.80;99.90
23073;DHT22;67971;51.046;3.732;2023-04-03T01:57:04;5.80;99.90
23073;DHT22;67971;51.046;3.732;2023-04-03T01:59:29;5.80;99.90
23073;DHT22;67971;51.046;3.732;2023-04-03T02:01:55;5.80;99.90
23073;DHT22;67971;51.046;3.732;2023-04-03T02:04:21;5.80;99.90
23073;DHT22;67971;51.046;3.732;2023-04-03T02:06:47;5.70;99.90
23073;DHT22;67971;51.046;3.732;2023-04-03T02:09:13;5.70;99.90
23073;DHT22;67971;51.046;3.732;2023-04-03T02:11:38;5.70;99.90
23073;DHT22;67971;51.046;3.732;2023-04-03T02:14:04;5.70;99.90
23073;DHT22;67971;51.046;3.732;2023-04-03T02:16:30;5.70;99.90
23073;DHT22;67971;51.046;3.732;2023-04-03T02:18:56;5.70;99.90
23073;DHT22;67971;51.046;3.732;2023-04-03T02:21:22;5.70;99.90
23073;DHT22;67971;51.046;3.732;2023-04-03T02:23:48;5.70;99.90
23073;DHT22;67971;51.046;3.732;2023-04-03T02:26:15;5.60;99.90
23073;DHT22;67971;51.046;3.732;2023-04-03T02:28:41;5.60;99.90
23073;DHT22;67971;51.046;3.732;2023-04-03T02:31:07;5.60;99.90
23073;DHT22;67971;51.046;3.732;2023-04-03T02:33:34;5.60;99.90
23073;DHT22;67971;51.046;3.732;2023-04-03T02:36:03;5.60;99.90
23073;DHT22;67971;51.046;3.732;2023-04-03T02:38:29;5.60;99.90
23073;DHT22;67971;51.046;3.732;2023-04-03T02:41:03;5.60;99.90
23073;DHT22;67971;51.046;3.732;2023-04-03T02:43:29;5.60;99.90
23073;DHT22;67971;51.046;3.732;2023-04-03T02:45:55;5.50;99.90
23073;DHT22;67971;51.046;3.732;2023-04-03T02:48:21;5.50;99.90
23073;DHT22;67971;51.046;3.732;2023-04-03T02:50:47;5.50;99.90
23073;DHT22;67971;51.046;3.732;2023-04-03T02:53:13;5.50;99.90
23073;DHT22;67971;51.046;3.732;2023-04-03T02:55:38;5.60;99.90
23073;DHT22;67971;51.046;3.732;2023-04-03T02:58:04;5.60;99.90
23073;DHT22;67971;51.046;3.732;2023-04-03T03:00:30;5.50;99.90
23073;DHT22;67971;51.046;3.732;2023-04-03T03:02:55;5.60;99.90
23073;DHT22;67971;51.046;3.732;2023-04-03T03:05:21;5.50;99.90
23073;DHT22;67971;51.046;3.732;2023-04-03T03:07:47;5.50;99.90
23073;DHT22;67971;51.046;3.732;2023-04-03T03:10:13;5.60;99.90
23073;DHT22;67971;51.046;3.732;2023-04-03T03:12:39;5.60;99.90
23073;DHT22;67971;51.046;3.732;2023-04-03T03:15:06;5.70;99.90
23073;DHT22;67971;51.046;3.732;2023-04-03T03:17:32;5.60;99.90
23073;DHT22;67971;51.046;3.732;2023-04-03T03:19:58;5.60;99.90
23073;DHT22;67971;51.046;3.732;2023-04-03T03:22:24;5.50;99.90
23073;DHT22;67971;51.046;3.732;2023-04-03T03:24:50;5.60;99.90
23073;DHT22;67971;51.046;3.732;2023-04-03T03:27:15;5.50;99.90
23073;DHT22;67971;51.046;3.732;2023-04-03T03:29:42;5.50;99.90
23073;DHT22;67971;51.046;3.732;2023-04-03T03:32:07;5.50;99.90
23073;DHT22;67971;51.046;3.732;2023-04-03T03:34:33;5.40;99.90
23073;DHT22;67971;51.046;3.732;2023-04-03T03:36:59;5.50;99.90
23073;DHT22;67971;51.046;3.732;2023-04-03T03:39:25;5.40;99.90
23073;DHT22;67971;51.046;3.732;2023-04-03T03:41:51;5.40;99.90
23073;DHT22;67971;51.046;3.732;2023-04-03T03:44:19;5.40;99.90
23073;DHT22;67971;51.046;3.732;2023-04-03T03:46:45;5.40;99.90
23073;DHT22;67971;51.046;3.732;2023-04-03T03:49:11;5.40;99.90
23073;DHT22;67971;51.046;3.732;2023-04-03T03:51:39;5.40;99.90
23073;DHT22;67971;51.046;3.732;2023-04-03T03:54:06;5.40;99.90
23073;DHT22;67971;51.046;3.732;2023-04-03T03:56:32;5.40;99.90
23073;DHT22;67971;51.046;3.732;2023-04-03T03:58:58;5.40;99.90
23073;DHT22;67971;51.046;3.732;2023-04-03T04:01:24;5.40;99.90
23073;DHT22;67971;51.046;3.732;2023-04-03T04:03:50;5.30;99.90
23073;DHT22;67971;51.046;3.732;2023-04-03T04:06:16;5.30;99.90
23073;DHT22;67971;51.046;3.732;2023-04-03T04:08:42;5.20;99.90
23073;DHT22;67971;51.046;3.732;2023-04-03T04:11:08;5.20;99.90
23073;DHT22;67971;51.046;3.732;2023-04-03T04:13:34;5.20;99.90
23073;DHT22;67971;51.046;3.732;2023-04-03T04:16:00;5.20;99.90
23073;DHT22;67971;51.046;3.732;2023-04-03T04:18:26;5.20;99.90
23073;DHT22;67971;51.046;3.732;2023-04-03T04:20:52;5.20;99.90
23073;DHT22;67971;51.046;3.732;2023-04-03T04:23:18;5.30;99.90
23073;DHT22;67971;51.046;3.732;2023-04-03T04:25:48;5.30;99.90
23073;DHT22;67971;51.046;3.732;2023-04-03T04:28:14;5.20;99.90
23073;DHT22;67971;51.046;3.732;2023-04-03T04:30:40;5.20;99.90
23073;DHT22;67971;51.046;3.732;2023-04-03T04:33:06;5.10;99.90
23073;DHT22;67971;51.046;3.732;2023-04-03T04:35:32;5.10;99.90
23073;DHT22;67971;51.046;3.732;2023-04-03T04:37:58;5.10;99.90
23073;DHT22;67971;51.046;3.732;2023-04-03T04:40:24;5.20;99.90
23073;DHT22;67971;51.046;3.732;2023-04-03T04:42:50;5.20;99.90
23073;DHT22;67971;51.046;3.732;2023-04-03T04:45:16;5.10;99.90
23073;DHT22;67971;51.046;3.732;2023-04-03T04:47:42;5.10;99.90
23073;DHT22;67971;51.046;3.732;2023-04-03T04:50:08;5.10;99.90
23073;DHT22;67971;51.046;3.732;2023-04-03T04:52:33;5.10;99.90
23073;DHT22;67971;51.046;3.732;2023-04-03T04:54:59;5.10;99.90
23073;DHT22;67971;51.046;3.732;2023-04-03T04:57:25;5.10;99.90
23073;DHT22;67971;51.046;3.732;2023-04-03T04:59:51;5.00;99.90
23073;DHT22;67971;51.046;3.732;2023-04-03T05:02:17;5.00;99.90
23073;DHT22;67971;51.046;3.732;2023-04-03T05:04:43;5.00;99.90
23073;DHT22;67971;51.046;3.732;2023-04-03T05:07:09;4.90;99.90
23073;DHT22;67971;51.046;3.732;2023-04-03T05:09:35;4.90;99.90
23073;DHT22;67971;51.046;3.732;2023-04-03T05:12:01;4.90;99.90
23073;DHT22;67971;51.046;3.732;2023-04-03T05:14:28;4.90;99.90
23073;DHT22;67971;51.046;3.732;2023-04-03T05:16:54;4.90;99.90
23073;DHT22;67971;51.046;3.732;2023-04-03T05:19:23;4.90;99.90
23073;DHT22;67971;51.046;3.732;2023-04-03T05:21:48;4.80;99.90
23073;DHT22;67971;51.046;3.732;2023-04-03T05:24:15;4.80;99.90
23073;DHT22;67971;51.046;3.732;2023-04-03T05:26:42;4.80;99.90
23073;DHT22;67971;51.046;3.732;2023-04-03T05:29:07;4.80;99.90
23073;DHT22;67971;51.046;3.732;2023-04-03T05:31:33;4.80;99.90
23073;DHT22;67971;51.046;3.732;2023-04-03T05:33:59;4.90;99.90
23073;DHT22;67971;51.046;3.732;2023-04-03T05:36:25;4.80;99.90
23073;DHT22;67971;51.046;3.732;2023-04-03T05:38:51;4.90;99.90
23073;DHT22;67971;51.046;3.732;2023-04-03T05:41:17;4.90;99.90
23073;DHT22;67971;51.046;3.732;2023-04-03T05:43:43;5.00;99.90
23073;DHT22;67971;51.046;3.732;2023-04-03T05:46:11;4.90;99.90
23073;DHT22;67971;51.046;3.732;2023-04-03T05:48:37;5.00;99.90
23073;DHT22;67971;51.046;3.732;2023-04-03T05:51:03;5.00;99.90
23073;DHT22;67971;51.046;3.732;2023-04-03T05:53:31;5.00;99.90
23073;DHT22;67971;51.046;3.732;2023-04-03T05:55:58;5.00;99.90
23073;DHT22;67971;51.046;3.732;2023-04-03T05:58:24;5.10;99.90
23073;DHT22;67971;51.046;3.732;2023-04-03T06:00:50;5.20;99.90
23073;DHT22;67971;51.046;3.732;2023-04-03T06:03:15;5.20;99.90
23073;DHT22;67971;51.046;3.732;2023-04-03T06:05:42;5.20;99.90
23073;DHT22;67971;51.046;3.732;2023-04-03T06:08:08;5.30;99.90
23073;DHT22;67971;51.046;3.732;2023-04-03T06:10:35;5.30;99.90
23073;DHT22;67971;51.046;3.732;2023-04-03T06:13:01;5.30;99.90
23073;DHT22;67971;51.046;3.732;2023-04-03T06:15:27;5.30;99.90
23073;DHT22;67971;51.046;3.732;2023-04-03T06:17:53;5.40;99.90
23073;DHT22;67971;51.046;3.732;2023-04-03T06:20:19;5.40;99.90
23073;DHT22;67971;51.046;3.732;2023-04-03T06:22:45;5.50;99.90
23073;DHT22;67971;51.046;3.732;2023-04-03T06:25:11;5.60;99.90
23073;DHT22;67971;51.046;3.732;2023-04-03T06:27:38;5.70;99.90
23073;DHT22;67971;51.046;3.732;2023-04-03T06:30:05;5.80;99.90
23073;DHT22;67971;51.046;3.732;2023-04-03T06:32:31;5.80;99.90
23073;DHT22;67971;51.046;3.732;2023-04-03T06:34:57;5.90;99.90
23073;DHT22;67971;51.046;3.732;2023-04-03T06:37:24;5.90;99.90
23073;DHT22;67971;51.046;3.732;2023-04-03T06:39:54;5.90;99.90
23073;DHT22;67971;51.046;3.732;2023-04-03T06:42:20;6.00;99.90
23073;DHT22;67971;51.046;3.732;2023-04-03T06:44:46;6.20;99.90
23073;DHT22;67971;51.046;3.732;2023-04-03T06:47:14;6.70;99.90
23073;DHT22;67971;51.046;3.732;2023-04-03T06:49:40;7.90;99.90
23073;DHT22;67971;51.046;3.732;2023-04-03T06:52:06;9.40;99.90
23073;DHT22;67971;51.046;3.732;2023-04-03T06:54:32;10.80;99.90
23073;DHT22;67971;51.046;3.732;2023-04-03T06:56:58;12.20;99.90
23073;DHT22;67971;51.046;3.732;2023-04-03T06:59:24;13.00;99.90
23073;DHT22;67971;51.046;3.732;2023-04-03T07:01:50;14.10;99.90
23073;DHT22;67971;51.046;3.732;2023-04-03T07:04:16;14.70;99.90
23073;DHT22;67971;51.046;3.732;2023-04-03T07:06:42;15.40;99.90
23073;DHT22;67971;51.046;3.732;2023-04-03T07:09:09;16.20;99.90
23073;DHT22;67971;51.046;3.732;2023-04-03T07:11:36;16.80;99.90
23073;DHT22;67971;51.046;3.732;2023-04-03T07:14:02;17.00;99.90
23073;DHT22;67971;51.046;3.732;2023-04-03T07:16:28;17.40;99.90
23073;DHT22;67971;51.046;3.732;2023-04-03T07:18:56;17.90;99.90
23073;DHT22;67971;51.046;3.732;2023-04-03T07:21:23;18.60;99.90
23073;DHT22;67971;51.046;3.732;2023-04-03T07:23:49;19.20;99.90
23073;DHT22;67971;51.046;3.732;2023-04-03T07:26:14;18.70;99.90
23073;DHT22;67971;51.046;3.732;2023-04-03T07:28:40;18.80;99.90
23073;DHT22;67971;51.046;3.732;2023-04-03T07:31:10;18.60;99.90
23073;DHT22;67971;51.046;3.732;2023-04-03T07:33:38;18.70;99.90
23073;DHT22;67971;51.046;3.732;2023-04-03T07:36:05;18.70;99.90
23073;DHT22;67971;51.046;3.732;2023-04-03T07:38:33;18.20;99.90
23073;DHT22;67971;51.046;3.732;2023-04-03T07:40:59;17.80;99.90
23073;DHT22;67971;51.046;3.732;2023-04-03T07:43:25;18.00;99.90
23073;DHT22;67971;51.046;3.732;2023-04-03T07:45:51;18.30;99.90
23073;DHT22;67971;51.046;3.732;2023-04-03T07:48:23;18.10;99.90
23073;DHT22;67971;51.046;3.732;2023-04-03T07:50:49;18.10;99.90
23073;DHT22;67971;51.046;3.732;2023-04-03T07:53:15;18.00;99.90
23073;DHT22;67971;51.046;3.732;2023-04-03T07:55:41;18.30;99.90
23073;DHT22;67971;51.046;3.732;2023-04-03T07:58:11;18.20;99.90
23073;DHT22;67971;51.046;3.732;2023-04-03T08:00:38;18.50;99.90
23073;DHT22;67971;51.046;3.732;2023-04-03T08:03:05;18.30;99.90
23073;DHT22;67971;51.046;3.732;2023-04-03T08:05:31;18.40;99.90
23073;DHT22;67971;51.046;3.732;2023-04-03T08:08:01;18.80;99.90
23073;DHT22;67971;51.046;3.732;2023-04-03T08:10:27;19.40;99.90
23073;DHT22;67971;51.046;3.732;2023-04-03T08:12:52;19.50;99.90
23073;DHT22;67971;51.046;3.732;2023-04-03T08:15:18;20.10;99.90
23073;DHT22;67971;51.046;3.732;2023-04-03T08:17:44;20.80;99.90
23073;DHT22;67971;51.046;3.732;2023-04-03T08:20:11;21.30;99.90
23073;DHT22;67971;51.046;3.732;2023-04-03T08:22:37;22.20;99.90
23073;DHT22;67971;51.046;3.732;2023-04-03T08:25:03;22.10;99.90
23073;DHT22;67971;51.046;3.732;2023-04-03T08:27:28;22.70;99.90
23073;DHT22;67971;51.046;3.732;2023-04-03T08:29:56;22.80;99.90
23073;DHT22;67971;51.046;3.732;2023-04-03T08:32:22;22.70;99.90
23073;DHT22;67971;51.046;3.732;2023-04-03T08:34:48;23.20;99.90
23073;DHT22;67971;51.046;3.732;2023-04-03T08:37:14;23.90;99.90
23073;DHT22;67971;51.046;3.732;2023-04-03T08:39:41;24.20;99.10
23073;DHT22;67971;51.046;3.732;2023-04-03T08:45:05;23.90;98.70
23073;DHT22;67971;51.046;3.732;2023-04-03T08:50:33;25.00;96.80
23073;DHT22;67971;51.046;3.732;2023-04-03T08:53:03;24.40;95.50
23073;DHT22;67971;51.046;3.732;2023-04-03T08:55:37;24.90;94.40
23073;DHT22;67971;51.046;3.732;2023-04-03T08:58:07;24.90;93.80
23073;DHT22;67971;51.046;3.732;2023-04-03T09:03:13;25.10;91.30
23073;DHT22;67971;51.046;3.732;2023-04-03T09:05:43;25.90;91.20
23073;DHT22;67971;51.046;3.732;2023-04-03T09:10:49;25.80;90.50
23073;DHT22;67971;51.046;3.732;2023-04-03T09:13:57;25.60;90.70
23073;DHT22;67971;51.046;3.732;2023-04-03T09:19:02;24.60;90.90
23073;DHT22;67971;51.046;3.732;2023-04-03T09:21:38;24.90;88.50
23073;DHT22;67971;51.046;3.732;2023-04-03T09:24:06;24.30;89.90
23073;DHT22;67971;51.046;3.732;2023-04-03T09:26:53;23.90;88.20
23073;DHT22;67971;51.046;3.732;2023-04-03T09:29:23;24.60;87.50
23073;DHT22;67971;51.046;3.732;2023-04-03T09:31:52;24.90;85.00
23073;DHT22;67971;51.046;3.732;2023-04-03T09:36:51;25.60;86.10
23073;DHT22;67971;51.046;3.732;2023-04-03T09:39:26;26.00;82.90
23073;DHT22;67971;51.046;3.732;2023-04-03T09:42:04;26.70;82.80
23073;DHT22;67971;51.046;3.732;2023-04-03T09:44:36;26.90;81.10
23073;DHT22;67971;51.046;3.732;2023-04-03T09:47:23;26.60;80.00
23073;DHT22;67971;51.046;3.732;2023-04-03T09:49:49;26.60;81.00
23073;DHT22;67971;51.046;3.732;2023-04-03T09:52:22;26.60;79.90
23073;DHT22;67971;51.046;3.732;2023-04-03T09:54:48;26.30;80.20
23073;DHT22;67971;51.046;3.732;2023-04-03T09:57:14;26.70;79.00
23073;DHT22;67971;51.046;3.732;2023-04-03T09:59:59;26.70;76.10
23073;DHT22;67971;51.046;3.732;2023-04-03T10:02:44;25.50;77.00
23073;DHT22;67971;51.046;3.732;2023-04-03T10:05:36;25.30;79.80
23073;DHT22;67971;51.046;3.732;2023-04-03T10:10:40;24.00;79.70
23073;DHT22;67971;51.046;3.732;2023-04-03T10:13:18;25.20;78.70
23073;DHT22;67971;51.046;3.732;2023-04-03T10:18:41;26.30;77.20
23073;DHT22;67971;51.046;3.732;2023-04-03T10:24:08;27.60;73.00
23073;DHT22;67971;51.046;3.732;2023-04-03T10:26:46;27.30;72.30
23073;DHT22;67971;51.046;3.732;2023-04-03T10:35:02;27.80;73.50
23073;DHT22;67971;51.046;3.732;2023-04-03T10:37:57;29.00;73.30
23073;DHT22;67971;51.046;3.732;2023-04-03T10:43:06;29.90;69.00
23073;DHT22;67971;51.046;3.732;2023-04-03T10:45:50;30.40;66.80
23073;DHT22;67971;51.046;3.732;2023-04-03T10:48:59;28.70;61.30
23073;DHT22;67971;51.046;3.732;2023-04-03T10:54:31;29.00;70.40
23073;DHT22;67971;51.046;3.732;2023-04-03T10:57:18;29.60;62.70
23073;DHT22;67971;51.046;3.732;2023-04-03T10:59:58;29.30;61.90
23073;DHT22;67971;51.046;3.732;2023-04-03T11:02:31;29.30;59.80
23073;DHT22;67971;51.046;3.732;2023-04-03T11:05:07;28.90;62.70
23073;DHT22;67971;51.046;3.732;2023-04-03T11:07:45;27.80;61.00
23073;DHT22;67971;51.046;3.732;2023-04-03T11:10:26;26.70;64.70
23073;DHT22;67971;51.046;3.732;2023-04-03T11:13:04;27.20;71.00
23073;DHT22;67971;51.046;3.732;2023-04-03T11:15:32;27.40;64.40
23073;DHT22;67971;51.046;3.732;2023-04-03T11:18:15;27.50;63.30
23073;DHT22;67971;51.046;3.732;2023-04-03T11:20:50;27.80;62.00
23073;DHT22;67971;51.046;3.732;2023-04-03T11:23:24;28.60;63.10
23073;DHT22;67971;51.046;3.732;2023-04-03T11:25:56;28.80;60.60
23073;DHT22;67971;51.046;3.732;2023-04-03T11:28:25;27.40;58.30
23073;DHT22;67971;51.046;3.732;2023-04-03T11:33:45;26.80;62.30
23073;DHT22;67971;51.046;3.732;2023-04-03T11:36:30;28.00;60.30
23073;DHT22;67971;51.046;3.732;2023-04-03T11:39:03;28.70;60.10
23073;DHT22;67971;51.046;3.732;2023-04-03T11:41:33;28.80;60.10
23073;DHT22;67971;51.046;3.732;2023-04-03T11:44:05;29.70;59.00
23073;DHT22;67971;51.046;3.732;2023-04-03T12:00:49;31.00;57.30
23073;DHT22;67971;51.046;3.732;2023-04-03T12:08:30;32.70;57.70
23073;DHT22;67971;51.046;3.732;2023-04-03T12:11:25;32.00;56.00
23073;DHT22;67971;51.046;3.732;2023-04-03T12:19:01;32.40;56.20
23073;DHT22;67971;51.046;3.732;2023-04-03T12:34:59;31.50;56.70
23073;DHT22;67971;51.046;3.732;2023-04-03T12:37:48;31.80;55.00
23073;DHT22;67971;51.046;3.732;2023-04-03T12:40:36;32.00;54.40
23073;DHT22;67971;51.046;3.732;2023-04-03T12:48:15;32.20;52.20
23073;DHT22;67971;51.046;3.732;2023-04-03T12:50:44;32.90;54.00
23073;DHT22;67971;51.046;3.732;2023-04-03T12:53:24;32.90;53.30
23073;DHT22;67971;51.046;3.732;2023-04-03T12:55:58;31.20;50.60
23073;DHT22;67971;51.046;3.732;2023-04-03T12:58:43;29.80;51.60
23073;DHT22;67971;51.046;3.732;2023-04-03T13:01:15;30.60;54.50
23073;DHT22;67971;51.046;3.732;2023-04-03T13:03:48;31.50;52.30
23073;DHT22;67971;51.046;3.732;2023-04-03T13:06:23;31.40;52.10
23073;DHT22;67971;51.046;3.732;2023-04-03T13:08:54;31.20;50.60
23073;DHT22;67971;51.046;3.732;2023-04-03T13:11:23;31.10;52.20
23073;DHT22;67971;51.046;3.732;2023-04-03T13:14:04;31.40;52.50
23073;DHT22;67971;51.046;3.732;2023-04-03T13:16:32;32.90;49.90
23073;DHT22;67971;51.046;3.732;2023-04-03T13:18:58;32.70;50.60
23073;DHT22;67971;51.046;3.732;2023-04-03T13:21:30;31.70;49.40
23073;DHT22;67971;51.046;3.732;2023-04-03T13:24:00;31.90;51.70
23073;DHT22;67971;51.046;3.732;2023-04-03T13:26:30;33.00;49.90
23073;DHT22;67971;51.046;3.732;2023-04-03T13:29:01;33.10;49.70
23073;DHT22;67971;51.046;3.732;2023-04-03T13:31:34;33.60;49.80
23073;DHT22;67971;51.046;3.732;2023-04-03T13:34:11;32.70;49.10
23073;DHT22;67971;51.046;3.732;2023-04-03T13:36:38;32.50;49.10
23073;DHT22;67971;51.046;3.732;2023-04-03T13:39:20;31.60;48.30
23073;DHT22;67971;51.046;3.732;2023-04-03T13:41:49;30.20;46.20
23073;DHT22;67971;51.046;3.732;2023-04-03T13:46:58;30.50;51.00
23073;DHT22;67971;51.046;3.732;2023-04-03T13:49:36;30.70;48.50
23073;DHT22;67971;51.046;3.732;2023-04-03T13:52:26;30.00;46.60
23073;DHT22;67971;51.046;3.732;2023-04-03T13:54:56;29.50;47.80
23073;DHT22;67971;51.046;3.732;2023-04-03T13:57:22;30.80;47.40
23073;DHT22;67971;51.046;3.732;2023-04-03T13:59:48;29.90;48.10
23073;DHT22;67971;51.046;3.732;2023-04-03T14:02:22;29.00;47.70
23073;DHT22;67971;51.046;3.732;2023-04-03T14:04:54;28.80;49.80
23073;DHT22;67971;51.046;3.732;2023-04-03T14:07:24;29.30;48.90
23073;DHT22;67971;51.046;3.732;2023-04-03T14:09:51;30.30;49.50
23073;DHT22;67971;51.046;3.732;2023-04-03T14:12:31;29.70;48.30
23073;DHT22;67971;51.046;3.732;2023-04-03T14:15:01;30.70;48.50
23073;DHT22;67971;51.046;3.732;2023-04-03T14:17:27;30.60;46.20
23073;DHT22;67971;51.046;3.732;2023-04-03T14:19:54;30.90;47.40
23073;DHT22;67971;51.046;3.732;2023-04-03T14:22:32;30.80;47.70
23073;DHT22;67971;51.046;3.732;2023-04-03T14:24:58;29.80;47.80
23073;DHT22;67971;51.046;3.732;2023-04-03T14:27:27;29.90;48.40
23073;DHT22;67971;51.046;3.732;2023-04-03T14:29:55;29.20;45.20
23073;DHT22;67971;51.046;3.732;2023-04-03T14:32:22;27.70;48.60
23073;DHT22;67971;51.046;3.732;2023-04-03T14:34:49;28.00;50.70
23073;DHT22;67971;51.046;3.732;2023-04-03T14:37:19;28.30;48.80
23073;DHT22;67971;51.046;3.732;2023-04-03T14:39:46;28.70;47.90
23073;DHT22;67971;51.046;3.732;2023-04-03T14:42:22;29.60;49.60
23073;DHT22;67971;51.046;3.732;2023-04-03T14:44:48;30.50;49.60
23073;DHT22;67971;51.046;3.732;2023-04-03T14:47:17;31.00;47.70
23073;DHT22;67971;51.046;3.732;2023-04-03T14:49:44;30.60;44.70
23073;DHT22;67971;51.046;3.732;2023-04-03T14:52:28;29.40;46.40
23073;DHT22;67971;51.046;3.732;2023-04-03T14:54:54;29.10;46.60
23073;DHT22;67971;51.046;3.732;2023-04-03T14:57:23;29.00;48.60
23073;DHT22;67971;51.046;3.732;2023-04-03T14:59:49;28.90;47.70
23073;DHT22;67971;51.046;3.732;2023-04-03T15:02:36;29.00;49.20
23073;DHT22;67971;51.046;3.732;2023-04-03T15:05:05;29.60;47.70
23073;DHT22;67971;51.046;3.732;2023-04-03T15:07:35;29.90;47.50
23073;DHT22;67971;51.046;3.732;2023-04-03T15:10:22;29.40;47.90
23073;DHT22;67971;51.046;3.732;2023-04-03T15:12:49;28.80;48.20
23073;DHT22;67971;51.046;3.732;2023-04-03T15:15:17;29.20;48.90
23073;DHT22;67971;51.046;3.732;2023-04-03T15:17:44;28.90;45.90
23073;DHT22;67971;51.046;3.732;2023-04-03T15:20:19;28.80;48.10
23073;DHT22;67971;51.046;3.732;2023-04-03T15:22:45;28.40;47.40
23073;DHT22;67971;51.046;3.732;2023-04-03T15:25:11;28.50;47.20
23073;DHT22;67971;51.046;3.732;2023-04-03T15:27:38;28.70;47.90
23073;DHT22;67971;51.046;3.732;2023-04-03T15:30:05;28.60;48.60
23073;DHT22;67971;51.046;3.732;2023-04-03T15:32:31;28.60;48.60
23073;DHT22;67971;51.046;3.732;2023-04-03T15:34:57;28.00;48.30
23073;DHT22;67971;51.046;3.732;2023-04-03T15:37:23;27.00;47.70
23073;DHT22;67971;51.046;3.732;2023-04-03T15:39:49;26.20;49.00
23073;DHT22;67971;51.046;3.732;2023-04-03T15:42:14;24.90;48.60
23073;DHT22;67971;51.046;3.732;2023-04-03T15:44:40;23.90;51.70
23073;DHT22;67971;51.046;3.732;2023-04-03T15:47:06;22.60;52.30
23073;DHT22;67971;51.046;3.732;2023-04-03T15:49:33;20.90;54.60
23073;DHT22;67971;51.046;3.732;2023-04-03T15:51:59;19.80;55.50
23073;DHT22;67971;51.046;3.732;2023-04-03T15:54:25;19.00;56.30
23073;DHT22;67971;51.046;3.732;2023-04-03T15:56:52;18.10;58.00
23073;DHT22;67971;51.046;3.732;2023-04-03T15:59:18;17.40;57.90
23073;DHT22;67971;51.046;3.732;2023-04-03T16:01:44;16.70;59.50
23073;DHT22;67971;51.046;3.732;2023-04-03T16:04:11;16.80;60.30
23073;DHT22;67971;51.046;3.732;2023-04-03T16:06:37;17.60;58.70
23073;DHT22;67971;51.046;3.732;2023-04-03T16:09:04;19.00;56.70
23073;DHT22;67971;51.046;3.732;2023-04-03T16:11:30;19.80;54.00
23073;DHT22;67971;51.046;3.732;2023-04-03T16:13:56;21.20;53.60
23073;DHT22;67971;51.046;3.732;2023-04-03T16:16:23;21.70;52.70
23073;DHT22;67971;51.046;3.732;2023-04-03T16:18:50;21.90;52.70
23073;DHT22;67971;51.046;3.732;2023-04-03T16:21:16;22.20;52.40
23073;DHT22;67971;51.046;3.732;2023-04-03T16:23:43;23.50;53.00
23073;DHT22;67971;51.046;3.732;2023-04-03T16:26:09;24.60;51.50
23073;DHT22;67971;51.046;3.732;2023-04-03T16:28:35;23.80;51.00
23073;DHT22;67971;51.046;3.732;2023-04-03T16:31:02;22.00;52.20
23073;DHT22;67971;51.046;3.732;2023-04-03T16:33:28;20.50;54.70
23073;DHT22;67971;51.046;3.732;2023-04-03T16:35:54;19.20;56.20
23073;DHT22;67971;51.046;3.732;2023-04-03T16:38:20;18.10;57.30
23073;DHT22;67971;51.046;3.732;2023-04-03T16:40:47;17.70;57.10
23073;DHT22;67971;51.046;3.732;2023-04-03T16:43:14;17.10;58.80
23073;DHT22;67971;51.046;3.732;2023-04-03T16:45:41;16.50;59.30
23073;DHT22;67971;51.046;3.732;2023-04-03T16:48:07;16.00;61.30
23073;DHT22;67971;51.046;3.732;2023-04-03T16:50:33;15.80;61.40
23073;DHT22;67971;51.046;3.732;2023-04-03T16:52:58;15.70;61.90
23073;DHT22;67971;51.046;3.732;2023-04-03T16:55:24;15.50;60.90
23073;DHT22;67971;51.046;3.732;2023-04-03T16:57:50;15.20;61.60
23073;DHT22;67971;51.046;3.732;2023-04-03T17:00:16;15.00;63.00
23073;DHT22;67971;51.046;3.732;2023-04-03T17:02:42;14.90;63.00
23073;DHT22;67971;51.046;3.732;2023-04-03T17:05:08;14.60;63.60
23073;DHT22;67971;51.046;3.732;2023-04-03T17:07:34;14.60;64.80
23073;DHT22;67971;51.046;3.732;2023-04-03T17:09:59;14.50;63.90
23073;DHT22;67971;51.046;3.732;2023-04-03T17:12:25;14.40;64.60
23073;DHT22;67971;51.046;3.732;2023-04-03T17:14:51;14.30;65.60
23073;DHT22;67971;51.046;3.732;2023-04-03T17:17:22;14.30;66.40